createdAt,value
2018-12-22T00:00:31.946Z,10.94
2018-12-22T00:01:31.956Z,10.93
2018-12-22T00:02:31.871Z,10.98
2018-12-22T00:03:31.892Z,10.90
2018-12-22T00:04:31.834Z,10.85
2018-12-22T00:05:31.854Z,10.86
2018-12-22T00:06:31.833Z,10.87
2018-12-22T00:07:31.823Z,10.94
2018-12-22T00:08:31.744Z,10.90
2018-12-22T00:09:31.764Z,10.86
2018-12-22T00:10:31.749Z,10.87
2018-12-22T00:11:31.685Z,10.86
2018-12-22T00:12:31.715Z,10.85
2018-12-22T00:13:31.641Z,10.87
2018-12-22T00:14:31.623Z,10.90
2018-12-22T00:15:31.719Z,10.87
2018-12-22T00:16:31.580Z,10.91
2018-12-22T00:17:31.551Z,10.91
2018-12-22T00:18:31.571Z,10.86
2018-12-22T00:19:31.556Z,10.83
2018-12-22T00:20:31.521Z,10.91
2018-12-22T00:21:31.493Z,10.82
2018-12-22T00:22:31.677Z,10.87
2018-12-22T00:23:31.474Z,10.87
2018-12-22T00:24:31.437Z,10.83
2018-12-22T00:25:31.401Z,10.91
2018-12-22T00:26:31.401Z,10.83
2018-12-22T00:27:31.352Z,10.86
2018-12-22T00:28:31.333Z,10.87
2018-12-22T00:29:31.350Z,10.86
2018-12-22T00:30:31.298Z,10.83
2018-12-22T00:31:31.312Z,10.85
2018-12-22T00:32:31.286Z,10.86
2018-12-22T00:33:31.263Z,10.83
2018-12-22T00:34:31.210Z,10.76
2018-12-22T00:35:31.176Z,10.85
2018-12-22T00:36:31.165Z,10.91
2018-12-22T00:37:31.131Z,10.80
2018-12-22T00:38:31.122Z,10.75
2018-12-22T00:39:31.098Z,10.78
2018-12-22T00:40:31.074Z,10.82
2018-12-22T00:41:31.114Z,10.80
2018-12-22T00:42:31.038Z,10.78
2018-12-22T00:43:31.007Z,10.76
2018-12-22T00:44:31.021Z,10.73
2018-12-22T00:45:30.977Z,10.73
2018-12-22T00:46:31.021Z,10.73
2018-12-22T00:47:30.947Z,10.76
2018-12-22T00:48:30.918Z,10.72
2018-12-22T00:49:30.947Z,10.75
2018-12-22T00:50:30.878Z,10.78
2018-12-22T00:51:30.846Z,10.75
2018-12-22T00:52:30.842Z,10.76
2018-12-22T00:53:30.877Z,10.68
2018-12-22T00:54:30.801Z,10.70
2018-12-22T00:55:30.782Z,10.70
2018-12-22T00:56:32.039Z,10.72
2018-12-22T00:58:55.081Z,10.65
2018-12-22T00:59:55.198Z,10.62
2018-12-22T01:00:55.009Z,10.60
2018-12-22T01:01:55.024Z,10.67
2018-12-22T01:02:54.968Z,10.65
2018-12-22T01:03:55.097Z,10.65
2018-12-22T01:04:54.985Z,10.72
2018-12-22T01:05:54.910Z,10.68
2018-12-22T01:06:54.894Z,10.60
2018-12-22T01:07:54.814Z,10.64
2018-12-22T01:08:54.831Z,10.64
2018-12-22T01:09:54.756Z,10.62
2018-12-22T01:10:54.791Z,10.65
2018-12-22T01:11:54.757Z,10.62
2018-12-22T01:12:54.728Z,10.62
2018-12-22T01:13:54.742Z,10.55
2018-12-22T01:14:54.780Z,10.55
2018-12-22T01:15:54.628Z,10.54
2018-12-22T01:16:54.638Z,10.57
2018-12-22T01:17:54.609Z,10.55
2018-12-22T01:18:54.569Z,10.48
2018-12-22T01:19:54.614Z,10.42
2018-12-22T01:20:54.569Z,10.42
2018-12-22T01:21:54.557Z,10.42
2018-12-22T01:22:54.516Z,10.39
2018-12-22T01:23:54.499Z,10.39
2018-12-22T01:24:54.442Z,10.39
2018-12-22T01:25:54.435Z,10.31
2018-12-22T01:26:54.404Z,10.35
2018-12-22T01:27:54.437Z,10.35
2018-12-22T01:28:54.376Z,10.31
2018-12-22T01:29:54.390Z,10.35
2018-12-22T01:30:54.372Z,10.27
2018-12-22T01:31:54.320Z,10.30
2018-12-22T01:32:54.342Z,10.28
2018-12-22T01:33:54.385Z,10.27
2018-12-22T01:34:54.262Z,10.34
2018-12-22T01:35:54.293Z,10.31
2018-12-22T01:36:54.221Z,10.28
2018-12-22T01:37:54.165Z,10.20
2018-12-22T01:38:54.201Z,10.18
2018-12-22T01:39:54.128Z,10.20
2018-12-22T01:40:54.131Z,10.17
2018-12-22T01:41:54.123Z,10.20
2018-12-22T01:42:54.076Z,10.23
2018-12-22T01:43:54.066Z,10.20
2018-12-22T01:44:54.072Z,10.18
2018-12-22T01:45:54.064Z,10.17
2018-12-22T01:46:54.004Z,10.18
2018-12-22T01:47:54.853Z,10.17
2018-12-22T01:48:53.931Z,10.17
2018-12-22T01:49:53.935Z,10.10
2018-12-22T01:50:53.904Z,10.10
2018-12-22T01:51:53.879Z,10.05
2018-12-22T01:52:53.929Z,10.09
2018-12-22T01:53:53.838Z,10.08
2018-12-22T01:54:53.833Z,10.06
2018-12-22T01:55:55.037Z,10.09
2018-12-22T01:56:53.766Z,10.03
2018-12-22T01:57:53.744Z,10.06
2018-12-22T01:58:54.515Z,10.02
2018-12-22T01:59:53.726Z,10.09
2018-12-22T02:00:53.696Z,10.10
2018-12-22T02:01:53.788Z,10.05
2018-12-22T02:02:53.670Z,10.06
2018-12-22T02:03:53.649Z,10.10
2018-12-22T02:04:53.603Z,10.10
2018-12-22T02:05:53.613Z,10.06
2018-12-22T02:06:53.604Z,10.06
2018-12-22T02:07:53.594Z,10.08
2018-12-22T02:08:53.573Z,10.06
2018-12-22T02:09:53.578Z,10.06
2018-12-22T02:10:53.540Z,10.05
2018-12-22T02:11:53.491Z,10.02
2018-12-22T02:12:53.439Z,9.99
2018-12-22T02:13:53.440Z,10.08
2018-12-22T02:14:53.432Z,9.94
2018-12-22T02:15:53.360Z,9.98
2018-12-22T02:18:26.509Z,9.99
2018-12-22T02:19:16.477Z,9.98
2018-12-22T02:20:16.347Z,9.93
2018-12-22T02:21:16.354Z,9.93
2018-12-22T02:22:16.416Z,9.88
2018-12-22T02:23:16.282Z,9.85
2018-12-22T02:24:16.237Z,9.87
2018-12-22T02:25:16.246Z,9.87
2018-12-22T02:26:16.201Z,9.93
2018-12-22T02:27:16.211Z,9.90
2018-12-22T02:28:16.162Z,9.88
2018-12-22T02:29:16.195Z,9.93
2018-12-22T02:30:16.118Z,9.88
2018-12-22T02:31:16.150Z,9.93
2018-12-22T02:32:18.268Z,9.83
2018-12-22T02:34:49.209Z,9.77
2018-12-22T02:35:39.127Z,9.69
2018-12-22T02:36:39.113Z,9.75
2018-12-22T02:37:39.079Z,9.67
2018-12-22T02:38:39.055Z,9.73
2018-12-22T02:39:39.021Z,9.70
2018-12-22T02:42:02.160Z,9.73
2018-12-22T02:43:02.003Z,9.77
2018-12-22T02:44:02.094Z,9.67
2018-12-22T02:45:02.030Z,9.78
2018-12-22T02:46:01.964Z,9.72
2018-12-22T02:48:25.037Z,9.73
2018-12-22T02:49:24.989Z,9.72
2018-12-22T02:50:24.950Z,9.73
2018-12-22T02:52:47.943Z,9.72
2018-12-22T02:55:21.077Z,9.69
2018-12-22T02:56:10.990Z,9.78
2018-12-22T02:57:10.912Z,9.70
2018-12-22T02:58:10.863Z,9.69
2018-12-22T03:00:34.018Z,9.73
2018-12-22T03:01:33.860Z,9.70
2018-12-22T03:02:33.831Z,9.55
2018-12-22T03:03:33.808Z,9.60
2018-12-22T03:06:06.952Z,9.63
2018-12-22T03:08:29.950Z,9.70
2018-12-22T03:09:20.017Z,9.60
2018-12-22T03:10:19.792Z,9.60
2018-12-22T03:11:19.749Z,9.63
2018-12-22T03:12:19.745Z,9.62
2018-12-22T03:13:19.685Z,9.63
2018-12-22T03:14:19.664Z,9.57
2018-12-22T03:15:19.661Z,9.62
2018-12-22T03:16:19.639Z,9.63
2018-12-22T03:17:19.606Z,9.69
2018-12-22T03:19:52.857Z,9.70
2018-12-22T03:22:15.754Z,9.75
2018-12-22T03:23:05.623Z,9.67
2018-12-22T03:24:05.562Z,9.78
2018-12-22T03:25:06.107Z,9.78
2018-12-22T03:26:05.531Z,9.75
2018-12-22T03:27:05.600Z,9.81
2018-12-22T03:28:05.491Z,9.73
2018-12-22T03:29:05.462Z,9.84
2018-12-22T03:30:05.420Z,9.72
2018-12-22T03:32:40.668Z,9.83
2018-12-22T03:33:29.416Z,9.88
2018-12-22T03:34:29.604Z,9.87
2018-12-22T03:35:29.384Z,9.90
2018-12-22T03:36:29.386Z,9.87
2018-12-22T03:37:29.322Z,9.96
2018-12-22T03:38:29.293Z,9.90
2018-12-22T03:39:29.296Z,9.90
2018-12-22T03:40:29.253Z,9.96
2018-12-22T03:42:52.318Z,9.85
2018-12-22T03:43:52.540Z,9.88
2018-12-22T03:44:52.277Z,9.90
2018-12-22T03:47:15.319Z,9.87
2018-12-22T03:48:15.715Z,9.81
2018-12-22T03:49:15.220Z,9.70
2018-12-22T03:51:38.818Z,9.69
2018-12-22T03:52:38.287Z,9.80
2018-12-22T03:55:11.393Z,9.78
2018-12-22T03:57:24.366Z,9.75
2018-12-22T03:58:24.238Z,9.69
2018-12-22T03:59:24.964Z,9.73
2018-12-22T04:00:24.230Z,9.73
2018-12-22T04:01:24.199Z,9.81
2018-12-22T04:02:24.113Z,9.72
2018-12-22T04:04:57.234Z,9.77
2018-12-22T04:05:47.493Z,9.69
2018-12-22T04:06:47.253Z,9.77
2018-12-22T04:07:47.105Z,9.70
2018-12-22T04:10:20.179Z,9.73
2018-12-22T04:12:43.362Z,9.75
2018-12-22T04:13:33.237Z,9.73
2018-12-22T04:16:06.588Z,9.73
2018-12-22T04:18:19.551Z,9.70
2018-12-22T04:19:19.181Z,9.75
2018-12-22T04:20:19.120Z,9.73
2018-12-22T04:21:19.116Z,9.81
2018-12-22T04:22:19.298Z,9.73
2018-12-22T04:24:54.208Z,9.73
2018-12-22T04:25:43.052Z,9.67
2018-12-22T04:28:16.189Z,9.80
2018-12-22T04:29:06.057Z,9.77
2018-12-22T04:31:29.183Z,9.73
2018-12-22T04:34:02.342Z,9.72
2018-12-22T04:36:15.098Z,9.72
2018-12-22T04:38:48.338Z,9.81
2018-12-22T04:41:11.125Z,9.87
2018-12-22T04:43:35.237Z,9.83
2018-12-22T04:44:24.280Z,9.73
2018-12-22T04:45:24.003Z,9.87
2018-12-22T04:47:58.339Z,9.87
2018-12-22T04:50:10.263Z,9.83
2018-12-22T04:51:18.809Z,9.90
2018-12-22T04:53:14.481Z,9.90
2018-12-22T04:55:38.525Z,9.94
2018-12-22T04:56:27.330Z,9.88
2018-12-22T04:59:01.399Z,9.83
2018-12-22T05:01:13.469Z,9.96
2018-12-22T05:03:36.387Z,9.90
2018-12-22T05:06:11.444Z,9.96
2018-12-22T05:06:59.337Z,9.96
2018-12-22T05:09:32.531Z,9.88
2018-12-22T05:10:22.446Z,9.94
2018-12-22T05:11:22.298Z,9.93
2018-12-22T05:13:55.481Z,10.03
2018-12-22T05:14:45.297Z,9.98
2018-12-22T05:17:08.363Z,9.94
2018-12-22T05:18:08.465Z,9.96
2018-12-22T05:20:32.358Z,9.99
2018-12-22T05:21:32.640Z,9.90
2018-12-22T05:23:55.502Z,9.96
2018-12-22T05:26:18.764Z,9.94
2018-12-22T05:27:18.318Z,9.98
2018-12-22T05:29:42.459Z,9.98
2018-12-22T05:30:42.519Z,9.99
2018-12-22T05:33:15.513Z,10.09
2018-12-22T05:35:28.388Z,10.05
2018-12-22T05:38:00.394Z,10.06
2018-12-22T05:38:50.326Z,10.05
2018-12-22T05:39:50.260Z,10.14
2018-12-22T05:40:50.321Z,10.12
2018-12-22T05:43:22.598Z,10.20
2018-12-22T05:45:46.331Z,10.23
2018-12-22T05:47:59.301Z,10.26
2018-12-22T05:48:59.370Z,10.24
2018-12-22T05:49:59.264Z,10.27
2018-12-22T05:50:59.190Z,10.26
2018-12-22T05:51:59.145Z,10.26
2018-12-22T05:54:33.327Z,10.34
2018-12-22T05:55:23.194Z,10.27
2018-12-22T05:56:23.147Z,10.21
2018-12-22T05:57:23.139Z,10.26
2018-12-22T05:58:23.094Z,10.31
2018-12-22T06:00:46.135Z,10.26
2018-12-22T06:01:46.091Z,10.28
2018-12-22T06:02:46.084Z,10.21
2018-12-22T06:05:09.057Z,10.28
2018-12-22T06:07:43.197Z,10.34
2018-12-22T06:08:33.027Z,10.24
2018-12-22T06:09:32.924Z,10.31
2018-12-22T06:12:07.261Z,10.35
2018-12-22T06:12:56.924Z,10.30
2018-12-22T06:15:30.129Z,10.35
2018-12-22T06:17:54.142Z,10.26
2018-12-22T06:18:42.917Z,10.34
2018-12-22T06:19:43.049Z,10.23
2018-12-22T06:20:42.880Z,10.31
2018-12-22T06:21:42.846Z,10.26
2018-12-22T06:22:42.841Z,10.26
2018-12-22T06:23:42.888Z,10.30
2018-12-22T06:24:42.768Z,10.28
2018-12-22T06:25:42.792Z,10.27
2018-12-22T06:28:15.958Z,10.24
2018-12-22T06:29:05.738Z,10.26
2018-12-22T06:30:09.401Z,10.31
2018-12-22T06:31:05.789Z,10.31
2018-12-22T06:33:38.839Z,10.26
2018-12-22T06:35:51.762Z,10.20
2018-12-22T06:36:51.751Z,10.21
2018-12-22T06:37:51.715Z,10.20
2018-12-22T06:39:00.502Z,10.10
2018-12-22T06:40:55.122Z,10.17
2018-12-22T06:41:45.348Z,10.16
2018-12-22T06:44:07.992Z,10.03
2018-12-22T06:46:31.139Z,10.05
2018-12-22T06:47:31.168Z,10.03
2018-12-22T06:48:31.002Z,10.03
2018-12-22T06:49:30.980Z,9.96
2018-12-22T06:52:04.178Z,9.98
2018-12-22T06:52:53.950Z,9.98
2018-12-22T06:53:53.880Z,9.98
2018-12-22T06:54:53.884Z,9.80
2018-12-22T06:55:53.877Z,9.96
2018-12-22T06:56:53.840Z,9.81
2018-12-22T06:57:53.798Z,9.78
2018-12-22T06:58:53.802Z,9.72
2018-12-22T07:01:16.922Z,9.75
2018-12-22T07:03:48.904Z,9.75
2018-12-22T07:04:39.733Z,9.77
2018-12-22T07:05:39.696Z,9.67
2018-12-22T07:06:39.690Z,9.72
2018-12-22T07:07:47.464Z,9.70
2018-12-22T07:08:39.709Z,9.63
2018-12-22T07:09:39.647Z,9.66
2018-12-22T07:10:39.660Z,9.60
2018-12-22T07:11:39.584Z,9.66
2018-12-22T07:12:39.544Z,9.52
2018-12-22T07:15:11.224Z,9.63
2018-12-22T07:16:02.539Z,9.55
2018-12-22T07:17:02.523Z,9.67
2018-12-22T07:18:11.152Z,9.62
2018-12-22T07:20:35.621Z,9.67
2018-12-22T07:21:25.474Z,9.60
2018-12-22T07:22:25.443Z,9.57
2018-12-22T07:23:25.457Z,9.69
2018-12-22T07:24:25.424Z,9.65
2018-12-22T07:25:25.384Z,9.62
2018-12-22T07:27:48.373Z,9.75
2018-12-22T07:28:48.346Z,9.69
2018-12-22T07:29:48.318Z,9.62
2018-12-22T07:30:48.305Z,9.63
2018-12-22T07:31:48.312Z,9.66
2018-12-22T07:32:56.691Z,9.75
2018-12-22T07:33:48.252Z,9.73
2018-12-22T07:34:48.216Z,9.78
2018-12-22T07:37:20.284Z,9.66
2018-12-22T07:39:33.216Z,9.62
2018-12-22T07:40:33.247Z,9.63
2018-12-22T07:41:33.128Z,9.63
2018-12-22T07:44:07.260Z,9.59
2018-12-22T07:44:56.175Z,9.65
2018-12-22T07:45:56.103Z,9.62
2018-12-22T07:46:56.057Z,9.63
2018-12-22T07:47:56.024Z,9.59
2018-12-22T07:48:56.874Z,9.67
2018-12-22T07:51:29.159Z,9.66
2018-12-22T07:52:18.995Z,9.67
2018-12-22T07:53:18.988Z,9.62
2018-12-22T07:54:18.957Z,9.66
2018-12-22T07:55:18.928Z,9.66
2018-12-22T07:56:18.897Z,9.67
2018-12-22T07:57:18.871Z,9.65
2018-12-22T07:58:18.867Z,9.72
2018-12-22T07:59:18.853Z,9.72
2018-12-22T08:00:18.809Z,9.70
2018-12-22T08:01:19.948Z,9.63
2018-12-22T08:02:18.783Z,9.72
2018-12-22T08:03:18.737Z,9.73
2018-12-22T08:04:18.729Z,9.57
2018-12-22T08:05:18.774Z,9.70
2018-12-22T08:06:18.679Z,9.78
2018-12-22T08:07:18.705Z,9.73
2018-12-22T08:08:18.616Z,9.78
2018-12-22T08:09:18.618Z,9.75
2018-12-22T08:10:18.688Z,9.77
2018-12-22T08:11:18.550Z,9.78
2018-12-22T08:13:41.579Z,9.75
2018-12-22T08:14:41.576Z,9.78
2018-12-22T08:15:43.029Z,9.72
2018-12-22T08:18:13.242Z,9.72
2018-12-22T08:20:37.591Z,9.72
2018-12-22T08:21:27.711Z,9.69
2018-12-22T08:22:27.919Z,9.80
2018-12-22T08:23:27.426Z,9.72
2018-12-22T08:24:27.444Z,9.81
2018-12-22T08:25:27.438Z,9.88
2018-12-22T08:26:27.363Z,9.80
2018-12-22T08:27:27.365Z,9.88
2018-12-22T08:28:27.436Z,9.88
2018-12-22T08:29:27.315Z,9.85
2018-12-22T08:30:27.328Z,9.80
2018-12-22T08:31:27.276Z,9.90
2018-12-22T08:32:27.269Z,9.83
2018-12-22T08:33:27.199Z,9.85
2018-12-22T08:34:27.177Z,9.91
2018-12-22T08:35:27.194Z,9.88
2018-12-22T08:36:27.192Z,9.88
2018-12-22T08:37:27.111Z,9.85
2018-12-22T08:38:27.134Z,9.85
2018-12-22T08:39:27.079Z,9.84
2018-12-22T08:40:27.047Z,9.96
2018-12-22T08:41:36.847Z,9.93
2018-12-22T08:43:30.470Z,9.93
2018-12-22T08:44:22.460Z,9.93
2018-12-22T08:46:16.743Z,9.94
2018-12-22T08:48:50.064Z,9.91
2018-12-22T08:51:12.936Z,9.88
2018-12-22T08:52:02.886Z,9.98
2018-12-22T08:53:02.756Z,9.96
2018-12-22T08:54:02.758Z,9.96
2018-12-22T08:55:02.647Z,9.88
2018-12-22T08:56:02.633Z,9.91
2018-12-22T08:57:02.618Z,9.90
2018-12-22T08:59:33.946Z,9.91
2018-12-22T09:01:59.968Z,9.88
2018-12-22T09:02:49.752Z,9.85
2018-12-22T09:03:50.350Z,10.01
2018-12-22T09:04:49.630Z,9.94
2018-12-22T09:05:58.447Z,9.93
2018-12-22T09:07:57.274Z,9.94
2018-12-22T09:08:54.039Z,10.02
2018-12-22T09:10:51.613Z,9.94
2018-12-22T09:11:40.284Z,9.93
2018-12-22T09:12:40.438Z,9.84
2018-12-22T09:13:49.277Z,9.90
2018-12-22T09:15:34.775Z,9.93
2018-12-22T09:16:34.569Z,9.96
2018-12-22T09:17:34.621Z,9.98
2018-12-22T09:18:34.546Z,9.96
2018-12-22T09:19:34.488Z,9.96
2018-12-22T09:20:34.481Z,10.02
2018-12-22T09:21:34.434Z,9.94
2018-12-22T09:23:58.606Z,10.05
2018-12-22T09:24:58.483Z,10.02
2018-12-22T09:27:21.591Z,9.99
2018-12-22T09:28:21.448Z,9.96
2018-12-22T09:31:00.775Z,9.96
2018-12-22T09:31:44.482Z,9.93
2018-12-22T09:32:44.486Z,9.90
2018-12-22T09:33:44.670Z,9.99
2018-12-22T09:34:44.330Z,10.02
2018-12-22T09:35:44.334Z,9.98
2018-12-22T09:38:18.440Z,9.96
2018-12-22T09:39:08.327Z,9.94
2018-12-22T09:40:08.287Z,9.99
2018-12-22T09:41:08.294Z,9.94
2018-12-22T09:42:08.235Z,9.94
2018-12-22T09:43:08.303Z,9.93
2018-12-22T09:44:08.211Z,9.98
2018-12-22T09:45:08.199Z,9.98
2018-12-22T09:46:08.147Z,9.93
2018-12-22T09:47:08.212Z,10.03
2018-12-22T09:48:08.097Z,9.93
2018-12-22T09:49:08.071Z,9.94
2018-12-22T09:50:08.131Z,10.05
2018-12-22T09:51:08.077Z,10.06
2018-12-22T09:52:08.012Z,10.06
2018-12-22T09:53:09.972Z,10.03
2018-12-22T09:55:31.071Z,10.06
2018-12-22T09:56:30.981Z,10.05
2018-12-22T09:57:30.967Z,10.14
2018-12-22T09:58:30.925Z,10.05
2018-12-22T09:59:30.924Z,10.14
2018-12-22T10:00:30.907Z,10.09
2018-12-22T10:02:53.957Z,10.17
2018-12-22T10:03:53.890Z,10.16
2018-12-22T10:04:53.870Z,10.05
2018-12-22T10:05:53.845Z,10.14
2018-12-22T10:06:53.827Z,10.03
2018-12-22T10:07:53.814Z,10.09
2018-12-22T10:08:53.797Z,10.09
2018-12-22T10:09:53.771Z,10.10
2018-12-22T10:10:53.749Z,10.05
2018-12-22T10:11:53.724Z,10.16
2018-12-22T10:12:53.693Z,10.09
2018-12-22T10:13:53.671Z,10.12
2018-12-22T10:14:53.646Z,10.14
2018-12-22T10:15:53.711Z,10.12
2018-12-22T10:16:53.630Z,10.18
2018-12-22T10:17:53.665Z,10.18
2018-12-22T10:18:53.593Z,10.20
2018-12-22T10:19:53.583Z,10.17
2018-12-22T10:20:53.524Z,10.16
2018-12-22T10:21:53.495Z,10.17
2018-12-22T10:24:26.597Z,10.20
2018-12-22T10:25:16.485Z,10.16
2018-12-22T10:27:39.540Z,10.23
2018-12-22T10:28:39.458Z,10.23
2018-12-22T10:29:40.153Z,10.27
2018-12-22T10:30:39.426Z,10.28
2018-12-22T10:31:39.702Z,10.30
2018-12-22T10:32:39.380Z,10.35
2018-12-22T10:33:39.361Z,10.35
2018-12-22T10:34:39.388Z,10.27
2018-12-22T10:35:39.340Z,10.28
2018-12-22T10:36:39.300Z,10.28
2018-12-22T10:37:39.257Z,10.31
2018-12-22T10:38:39.279Z,10.31
2018-12-22T10:41:02.426Z,10.45
2018-12-22T10:42:02.497Z,10.43
2018-12-22T10:43:02.284Z,10.48
2018-12-22T10:44:02.212Z,10.48
2018-12-22T10:45:02.296Z,10.46
2018-12-22T10:46:02.201Z,10.46
2018-12-22T10:47:02.216Z,10.55
2018-12-22T10:48:02.177Z,10.52
2018-12-22T10:49:02.097Z,10.52
2018-12-22T10:50:02.175Z,10.55
2018-12-22T10:51:02.081Z,10.52
2018-12-22T10:52:02.035Z,10.46
2018-12-22T10:53:10.748Z,10.55
2018-12-22T10:55:06.295Z,10.52
2018-12-22T10:55:57.410Z,10.58
2018-12-22T10:56:57.395Z,10.55
2018-12-22T10:57:57.342Z,10.48
2018-12-22T10:58:57.327Z,10.55
2018-12-22T11:01:26.433Z,10.58
2018-12-22T11:03:53.160Z,10.65
2018-12-22T11:04:43.649Z,10.70
2018-12-22T11:05:43.348Z,10.62
2018-12-22T11:08:07.411Z,10.67
2018-12-22T11:09:16.355Z,10.58
2018-12-22T11:11:01.707Z,10.54
2018-12-22T11:12:01.657Z,10.65
2018-12-22T11:13:01.711Z,10.54
2018-12-22T11:14:01.626Z,10.67
2018-12-22T11:15:01.665Z,10.60
2018-12-22T11:16:01.643Z,10.58
2018-12-22T11:17:01.526Z,10.60
2018-12-22T11:18:01.515Z,10.70
2018-12-22T11:19:01.515Z,10.79
2018-12-22T11:20:01.489Z,10.78
2018-12-22T11:21:01.463Z,10.80
2018-12-22T11:22:01.443Z,10.85
2018-12-22T11:23:01.469Z,10.85
2018-12-22T11:24:02.914Z,10.98
2018-12-22T11:25:01.351Z,11.05
2018-12-22T11:26:01.341Z,11.18
2018-12-22T11:27:01.314Z,11.13
2018-12-22T11:28:01.304Z,11.15
2018-12-22T11:29:01.293Z,11.23
2018-12-22T11:30:01.297Z,11.11
2018-12-22T11:31:01.228Z,11.09
2018-12-22T11:32:01.230Z,11.11
2018-12-22T11:33:03.284Z,11.09
2018-12-22T11:34:01.170Z,11.12
2018-12-22T11:36:23.253Z,11.04
2018-12-22T11:37:23.174Z,11.08
2018-12-22T11:38:23.171Z,11.03
2018-12-22T11:40:46.203Z,11.08
2018-12-22T11:41:46.181Z,11.00
2018-12-22T11:42:47.903Z,11.03
2018-12-22T11:43:55.111Z,11.01
2018-12-22T11:45:40.476Z,10.95
2018-12-22T11:46:40.437Z,10.94
2018-12-22T11:47:40.710Z,11.00
2018-12-22T11:48:40.411Z,10.93
2018-12-22T11:49:40.374Z,11.03
2018-12-22T11:50:40.387Z,11.00
2018-12-22T11:51:40.348Z,11.05
2018-12-22T11:52:40.326Z,11.01
2018-12-22T11:53:40.310Z,11.08
2018-12-22T11:54:40.272Z,11.13
2018-12-22T11:55:40.273Z,11.09
2018-12-22T11:56:40.222Z,11.15
2018-12-22T11:57:40.227Z,11.15
2018-12-22T11:58:40.200Z,11.12
2018-12-22T11:59:40.168Z,11.12
2018-12-22T12:00:40.162Z,11.09
2018-12-22T12:01:43.733Z,11.13
2018-12-22T12:02:40.110Z,11.12
2018-12-22T12:03:40.061Z,11.19
2018-12-22T12:04:42.038Z,11.27
2018-12-22T12:05:40.096Z,11.22
2018-12-22T12:06:40.053Z,11.27
2018-12-22T12:07:39.997Z,11.25
2018-12-22T12:08:39.987Z,11.28
2018-12-22T12:09:39.942Z,11.25
2018-12-22T12:10:39.917Z,11.25
2018-12-22T12:11:39.896Z,11.33
2018-12-22T12:12:39.942Z,11.33
2018-12-22T12:13:39.873Z,11.34
2018-12-22T12:14:39.872Z,11.34
2018-12-22T12:15:39.836Z,11.36
2018-12-22T12:16:39.808Z,11.38
2018-12-22T12:17:39.831Z,11.40
2018-12-22T12:18:39.779Z,11.43
2018-12-22T12:19:39.783Z,11.52
2018-12-22T12:20:39.747Z,11.40
2018-12-22T12:21:39.707Z,11.34
2018-12-22T12:22:39.705Z,11.37
2018-12-22T12:23:39.651Z,11.37
2018-12-22T12:24:39.729Z,11.36
2018-12-22T12:25:39.717Z,11.36
2018-12-22T12:26:39.628Z,11.36
2018-12-22T12:27:39.612Z,11.54
2018-12-22T12:28:39.549Z,11.58
2018-12-22T12:29:39.538Z,11.62
2018-12-22T12:30:39.517Z,11.55
2018-12-22T12:31:39.497Z,11.59
2018-12-22T12:32:39.463Z,11.58
2018-12-22T12:33:39.516Z,11.55
2018-12-22T12:34:39.444Z,11.58
2018-12-22T12:35:39.401Z,11.62
2018-12-22T12:38:02.438Z,11.56
2018-12-22T12:39:02.487Z,11.55
2018-12-22T12:40:02.416Z,11.51
2018-12-22T12:41:02.368Z,11.54
2018-12-22T12:42:02.349Z,11.46
2018-12-22T12:43:02.336Z,11.45
2018-12-22T12:44:02.424Z,11.40
2018-12-22T12:45:02.264Z,11.38
2018-12-22T12:46:02.299Z,11.37
2018-12-22T12:47:02.239Z,11.33
2018-12-22T12:48:02.215Z,11.31
2018-12-22T12:49:02.208Z,11.33
2018-12-22T12:50:02.180Z,11.31
2018-12-22T12:51:02.172Z,11.25
2018-12-22T12:52:02.118Z,11.19
2018-12-22T12:53:09.392Z,11.31
2018-12-22T12:54:02.116Z,11.20
2018-12-22T12:55:02.081Z,11.25
2018-12-22T12:56:02.061Z,11.22
2018-12-22T12:57:02.034Z,11.16
2018-12-22T12:58:01.994Z,11.13
2018-12-22T12:59:02.018Z,11.25
2018-12-22T13:00:01.987Z,11.12
2018-12-22T13:01:01.956Z,11.09
2018-12-22T13:02:01.953Z,11.18
2018-12-22T13:03:01.914Z,11.16
2018-12-22T13:04:01.876Z,11.12
2018-12-22T13:05:01.864Z,11.13
2018-12-22T13:06:01.831Z,11.05
2018-12-22T13:07:01.820Z,11.05
2018-12-22T13:08:01.785Z,10.91
2018-12-22T13:09:01.782Z,10.90
2018-12-22T13:10:01.774Z,10.87
2018-12-22T13:11:01.779Z,10.82
2018-12-22T13:12:01.705Z,10.67
2018-12-22T13:13:01.710Z,10.62
2018-12-22T13:14:01.661Z,10.49
2018-12-22T13:16:24.744Z,10.42
2018-12-22T13:17:24.713Z,10.49
2018-12-22T13:18:24.678Z,10.45
2018-12-22T13:19:24.702Z,10.43
2018-12-22T13:20:24.634Z,10.46
2018-12-22T13:21:24.733Z,10.49
2018-12-22T13:22:24.611Z,10.62
2018-12-22T13:23:24.594Z,10.55
2018-12-22T13:24:24.583Z,10.48
2018-12-22T13:25:24.525Z,10.46
2018-12-22T13:26:24.543Z,10.43
2018-12-22T13:27:24.516Z,10.41
2018-12-22T13:28:24.461Z,10.42
2018-12-22T13:29:24.479Z,10.28
2018-12-22T13:30:24.442Z,10.36
2018-12-22T13:31:24.399Z,10.24
2018-12-22T13:32:24.386Z,10.20
2018-12-22T13:33:24.594Z,10.18
2018-12-22T13:34:24.361Z,10.10
2018-12-22T13:35:24.334Z,10.01
2018-12-22T13:36:24.310Z,10.06
2018-12-22T13:37:24.310Z,10.05
2018-12-22T13:38:24.258Z,10.01
2018-12-22T13:39:24.248Z,9.98
2018-12-22T13:40:24.232Z,9.96
2018-12-22T13:41:24.196Z,9.99
2018-12-22T13:42:24.245Z,9.96
2018-12-22T13:43:24.183Z,9.90
2018-12-22T13:44:24.171Z,9.90
2018-12-22T13:45:24.118Z,9.88
2018-12-22T13:46:24.082Z,9.90
2018-12-22T13:47:24.105Z,9.93
2018-12-22T13:48:24.111Z,9.98
2018-12-22T13:49:24.108Z,9.85
2018-12-22T13:50:24.164Z,9.90
2018-12-22T13:51:24.173Z,9.99
2018-12-22T13:52:23.952Z,9.91
2018-12-22T13:53:23.971Z,9.91
2018-12-22T13:54:23.927Z,9.98
2018-12-22T13:55:23.919Z,9.94
2018-12-22T13:56:23.891Z,10.05
2018-12-22T13:57:23.882Z,10.02
2018-12-22T13:58:23.850Z,10.05
2018-12-22T13:59:23.825Z,10.06
2018-12-22T14:00:23.801Z,10.14
2018-12-22T14:01:23.878Z,10.20
2018-12-22T14:02:23.762Z,10.16
2018-12-22T14:03:23.767Z,10.18
2018-12-22T14:04:23.750Z,10.16
2018-12-22T14:05:23.696Z,10.14
2018-12-22T14:06:23.670Z,10.20
2018-12-22T14:07:23.633Z,10.18
2018-12-22T14:08:23.628Z,10.06
2018-12-22T14:09:23.606Z,10.03
2018-12-22T14:10:23.617Z,10.02
2018-12-22T14:11:23.616Z,9.98
2018-12-22T14:12:23.528Z,9.98
2018-12-22T14:13:23.499Z,9.94
2018-12-22T14:14:23.494Z,9.94
2018-12-22T14:15:23.483Z,9.96
2018-12-22T14:16:23.467Z,9.87
2018-12-22T14:17:23.429Z,9.91
2018-12-22T14:18:23.436Z,9.88
2018-12-22T14:19:23.409Z,9.88
2018-12-22T14:20:23.376Z,9.91
2018-12-22T14:21:23.329Z,9.81
2018-12-22T14:22:23.309Z,9.85
2018-12-22T14:23:23.291Z,9.80
2018-12-22T14:24:23.288Z,9.70
2018-12-22T14:25:23.247Z,9.81
2018-12-22T14:26:23.221Z,9.75
2018-12-22T14:27:23.229Z,9.77
2018-12-22T14:28:23.185Z,9.72
2018-12-22T14:29:23.160Z,9.73
2018-12-22T14:30:23.162Z,9.78
2018-12-22T14:31:23.123Z,9.81
2018-12-22T14:32:27.031Z,9.77
2018-12-22T14:33:23.079Z,9.80
2018-12-22T14:34:23.046Z,9.72
2018-12-22T14:35:23.025Z,9.75
2018-12-22T14:37:46.068Z,9.75
2018-12-22T14:38:46.071Z,9.75
2018-12-22T14:39:46.002Z,9.73
2018-12-22T14:40:45.976Z,9.78
2018-12-22T14:41:45.968Z,9.80
2018-12-22T14:42:45.954Z,9.81
2018-12-22T14:43:45.927Z,9.72
2018-12-22T14:44:45.891Z,9.69
2018-12-22T14:45:45.874Z,9.73
2018-12-22T14:46:45.863Z,9.75
2018-12-22T14:47:45.808Z,9.73
2018-12-22T14:48:45.812Z,9.77
2018-12-22T14:49:45.803Z,9.83
2018-12-22T14:50:45.778Z,9.90
2018-12-22T14:51:45.737Z,9.87
2018-12-22T14:52:45.710Z,9.84
2018-12-22T14:53:45.703Z,9.80
2018-12-22T14:54:45.691Z,9.73
2018-12-22T14:55:45.713Z,9.70
2018-12-22T14:56:45.648Z,9.77
2018-12-22T14:57:45.680Z,9.77
2018-12-22T14:58:45.570Z,9.72
2018-12-22T14:59:45.576Z,9.70
2018-12-22T15:00:45.555Z,9.73
2018-12-22T15:01:45.526Z,9.62
2018-12-22T15:02:45.507Z,9.62
2018-12-22T15:03:45.468Z,9.55
2018-12-22T15:04:45.448Z,9.69
2018-12-22T15:05:45.434Z,9.60
2018-12-22T15:06:45.466Z,9.66
2018-12-22T15:07:45.467Z,9.60
2018-12-22T15:08:45.386Z,9.62
2018-12-22T15:09:45.360Z,9.55
2018-12-22T15:10:45.330Z,9.50
2018-12-22T15:11:45.303Z,9.50
2018-12-22T15:14:08.489Z,9.48
2018-12-22T15:15:08.263Z,9.42
2018-12-22T15:16:08.258Z,9.47
2018-12-22T15:17:08.223Z,9.45
2018-12-22T15:18:08.213Z,9.48
2018-12-22T15:19:08.189Z,9.44
2018-12-22T15:20:08.155Z,9.36
2018-12-22T15:21:08.150Z,9.33
2018-12-22T15:22:08.126Z,9.34
2018-12-22T15:23:08.134Z,9.36
2018-12-22T15:24:08.078Z,9.36
2018-12-22T15:25:08.081Z,9.33
2018-12-22T15:26:08.082Z,9.29
2018-12-22T15:27:08.042Z,9.26
2018-12-22T15:29:31.018Z,9.27
2018-12-22T15:30:30.983Z,9.18